Prichard, Idaho
Current Conditions -  °F | °C
As of 11:53 PM on Friday 19 Dec 2014 (Local Time) from KMLP Reporting Station
Light Snow Light Snow  
Wind Chill: 18°   Ceiling: 500
Heat Index: 26°   Visibility: 7mi
Dew Point: 23°   Wind: 7mph
Humidity: 88%   Direction: NA
Pressure: 29.9"   Gusts: 17mph
Location:  47.1697°N, 115.775°W
Report Text: KMLP 200753Z AUTO VRB06G15KT 7SM -SN BKN005 OVC010 M03/M05 A2990 RMK AO2 UPB39E52SNE0658B52 SLP151 P0001 T10331050 400001033
Loading
Personal Weather Stations






























Interactive Weather Map New forecast layout! Learn more

10-Day Weather Forecast

Advertisements
Track Severe Weather on mobile